sensor_id;sensor_type;location;lat;lon;timestamp;temperature;humidity
74416;SHT31;62850;42.428;25.618;2024-01-25T00:02:22;2.97;72.70
74416;SHT31;62850;42.428;25.618;2024-01-25T00:04:47;3.00;72.51
74416;SHT31;62850;42.428;25.618;2024-01-25T00:07:12;2.92;72.75
74416;SHT31;62850;42.428;25.618;2024-01-25T00:09:38;2.97;72.81
74416;SHT31;62850;42.428;25.618;2024-01-25T00:12:04;3.05;72.55
74416;SHT31;62850;42.428;25.618;2024-01-25T00:14:29;3.01;72.61
74416;SHT31;62850;42.428;25.618;2024-01-25T00:16:55;3.04;72.66
74416;SHT31;62850;42.428;25.618;2024-01-25T00:19:20;2.99;72.60
74416;SHT31;62850;42.428;25.618;2024-01-25T00:21:46;2.97;72.73
74416;SHT31;62850;42.428;25.618;2024-01-25T00:24:12;2.84;72.95
74416;SHT31;62850;42.428;25.618;2024-01-25T00:26:37;2.76;73.04
74416;SHT31;62850;42.428;25.618;2024-01-25T00:29:03;2.69;73.28
74416;SHT31;62850;42.428;25.618;2024-01-25T00:31:29;2.73;73.28
74416;SHT31;62850;42.428;25.618;2024-01-25T00:33:55;2.86;73.08
74416;SHT31;62850;42.428;25.618;2024-01-25T00:36:21;2.82;72.87
74416;SHT31;62850;42.428;25.618;2024-01-25T00:38:47;2.86;72.85
74416;SHT31;62850;42.428;25.618;2024-01-25T00:41:17;2.75;73.04
74416;SHT31;62850;42.428;25.618;2024-01-25T00:43:43;2.66;73.60
74416;SHT31;62850;42.428;25.618;2024-01-25T00:46:09;2.71;73.44
74416;SHT31;62850;42.428;25.618;2024-01-25T00:48:35;2.76;73.35
74416;SHT31;62850;42.428;25.618;2024-01-25T00:51:01;2.82;72.78
74416;SHT31;62850;42.428;25.618;2024-01-25T00:53:27;2.72;73.11
74416;SHT31;62850;42.428;25.618;2024-01-25T00:55:53;2.65;73.09
74416;SHT31;62850;42.428;25.618;2024-01-25T00:58:19;2.56;73.27
74416;SHT31;62850;42.428;25.618;2024-01-25T01:00:44;2.39;73.49
74416;SHT31;62850;42.428;25.618;2024-01-25T01:03:11;2.38;73.50
74416;SHT31;62850;42.428;25.618;2024-01-25T01:05:37;2.36;73.59
74416;SHT31;62850;42.428;25.618;2024-01-25T01:08:03;2.39;73.69
74416;SHT31;62850;42.428;25.618;2024-01-25T01:10:29;2.32;73.73
74416;SHT31;62850;42.428;25.618;2024-01-25T01:12:54;2.31;73.74
74416;SHT31;62850;42.428;25.618;2024-01-25T01:15:20;2.28;73.77
74416;SHT31;62850;42.428;25.618;2024-01-25T01:17:45;2.35;73.65
74416;SHT31;62850;42.428;25.618;2024-01-25T01:20:11;2.36;73.55
74416;SHT31;62850;42.428;25.618;2024-01-25T01:22:36;2.34;73.66
74416;SHT31;62850;42.428;25.618;2024-01-25T01:25:02;2.26;73.82
74416;SHT31;62850;42.428;25.618;2024-01-25T01:27:27;2.10;74.38
74416;SHT31;62850;42.428;25.618;2024-01-25T01:29:53;2.10;74.25
74416;SHT31;62850;42.428;25.618;2024-01-25T01:32:18;2.05;74.16
74416;SHT31;62850;42.428;25.618;2024-01-25T01:34:44;2.07;74.17
74416;SHT31;62850;42.428;25.618;2024-01-25T01:37:09;2.21;73.98
74416;SHT31;62850;42.428;25.618;2024-01-25T01:39:35;2.14;73.99
74416;SHT31;62850;42.428;25.618;2024-01-25T01:42:00;2.29;74.16
74416;SHT31;62850;42.428;25.618;2024-01-25T01:44:26;2.38;73.83
74416;SHT31;62850;42.428;25.618;2024-01-25T01:46:51;2.45;73.28
74416;SHT31;62850;42.428;25.618;2024-01-25T01:49:17;2.41;73.47
74416;SHT31;62850;42.428;25.618;2024-01-25T01:51:42;2.34;73.59
74416;SHT31;62850;42.428;25.618;2024-01-25T01:54:09;2.26;73.83
74416;SHT31;62850;42.428;25.618;2024-01-25T01:56:35;2.41;73.76
74416;SHT31;62850;42.428;25.618;2024-01-25T01:59:04;2.52;73.38
74416;SHT31;62850;42.428;25.618;2024-01-25T02:01:31;2.41;73.64
74416;SHT31;62850;42.428;25.618;2024-01-25T02:03:56;2.49;73.57
74416;SHT31;62850;42.428;25.618;2024-01-25T02:06:25;2.53;73.58
74416;SHT31;62850;42.428;25.618;2024-01-25T02:08:51;2.55;73.57
74416;SHT31;62850;42.428;25.618;2024-01-25T02:11:18;2.46;73.76
74416;SHT31;62850;42.428;25.618;2024-01-25T02:13:44;2.52;73.73
74416;SHT31;62850;42.428;25.618;2024-01-25T02:16:10;2.52;73.82
74416;SHT31;62850;42.428;25.618;2024-01-25T02:18:36;2.39;73.78
74416;SHT31;62850;42.428;25.618;2024-01-25T02:21:01;2.41;74.00
74416;SHT31;62850;42.428;25.618;2024-01-25T02:23:27;2.52;73.69
74416;SHT31;62850;42.428;25.618;2024-01-25T02:25:52;2.48;73.57
74416;SHT31;62850;42.428;25.618;2024-01-25T02:28:18;2.48;73.81
74416;SHT31;62850;42.428;25.618;2024-01-25T02:30:43;2.44;73.95
74416;SHT31;62850;42.428;25.618;2024-01-25T02:33:09;2.42;73.84
74416;SHT31;62850;42.428;25.618;2024-01-25T02:35:34;2.34;74.12
74416;SHT31;62850;42.428;25.618;2024-01-25T02:38:00;2.28;74.37
74416;SHT31;62850;42.428;25.618;2024-01-25T02:40:25;2.29;74.28
74416;SHT31;62850;42.428;25.618;2024-01-25T02:42:51;2.22;74.51
74416;SHT31;62850;42.428;25.618;2024-01-25T02:45:16;2.31;74.38
74416;SHT31;62850;42.428;25.618;2024-01-25T02:47:42;2.22;74.32
74416;SHT31;62850;42.428;25.618;2024-01-25T02:50:07;2.17;74.32
74416;SHT31;62850;42.428;25.618;2024-01-25T02:52:33;2.17;74.18
74416;SHT31;62850;42.428;25.618;2024-01-25T02:54:58;2.05;74.42
74416;SHT31;62850;42.428;25.618;2024-01-25T02:57:25;2.00;74.71
74416;SHT31;62850;42.428;25.618;2024-01-25T02:59:51;2.00;74.64
74416;SHT31;62850;42.428;25.618;2024-01-25T03:02:16;2.04;74.69
74416;SHT31;62850;42.428;25.618;2024-01-25T03:04:44;2.04;74.46
74416;SHT31;62850;42.428;25.618;2024-01-25T03:07:10;1.91;74.76
74416;SHT31;62850;42.428;25.618;2024-01-25T03:09:35;1.84;75.24
74416;SHT31;62850;42.428;25.618;2024-01-25T03:12:01;1.85;75.25
74416;SHT31;62850;42.428;25.618;2024-01-25T03:14:26;1.74;75.41
74416;SHT31;62850;42.428;25.618;2024-01-25T03:16:52;1.74;75.73
74416;SHT31;62850;42.428;25.618;2024-01-25T03:19:18;1.70;75.75
74416;SHT31;62850;42.428;25.618;2024-01-25T03:21:43;1.62;76.00
74416;SHT31;62850;42.428;25.618;2024-01-25T03:24:09;1.64;75.79
74416;SHT31;62850;42.428;25.618;2024-01-25T03:26:34;1.71;75.52
74416;SHT31;62850;42.428;25.618;2024-01-25T03:28:59;1.73;75.52
74416;SHT31;62850;42.428;25.618;2024-01-25T03:31:25;1.63;75.65
74416;SHT31;62850;42.428;25.618;2024-01-25T03:33:50;1.67;75.62
74416;SHT31;62850;42.428;25.618;2024-01-25T03:36:16;1.59;75.69
74416;SHT31;62850;42.428;25.618;2024-01-25T03:38:42;1.57;75.70
74416;SHT31;62850;42.428;25.618;2024-01-25T03:41:08;1.63;75.28
74416;SHT31;62850;42.428;25.618;2024-01-25T03:43:34;1.73;75.48
74416;SHT31;62850;42.428;25.618;2024-01-25T03:46:00;1.56;75.36
74416;SHT31;62850;42.428;25.618;2024-01-25T03:48:26;1.53;75.48
74416;SHT31;62850;42.428;25.618;2024-01-25T03:50:51;1.49;75.58
74416;SHT31;62850;42.428;25.618;2024-01-25T03:53:21;1.54;75.64
74416;SHT31;62850;42.428;25.618;2024-01-25T03:55:47;1.50;75.88
74416;SHT31;62850;42.428;25.618;2024-01-25T03:58:14;1.53;75.75
74416;SHT31;62850;42.428;25.618;2024-01-25T04:00:40;1.59;75.70
74416;SHT31;62850;42.428;25.618;2024-01-25T04:03:05;1.71;75.55
74416;SHT31;62850;42.428;25.618;2024-01-25T04:05:30;1.80;75.18
74416;SHT31;62850;42.428;25.618;2024-01-25T04:07:56;1.78;75.08
74416;SHT31;62850;42.428;25.618;2024-01-25T04:10:21;1.80;75.32
74416;SHT31;62850;42.428;25.618;2024-01-25T04:12:47;1.84;75.14
74416;SHT31;62850;42.428;25.618;2024-01-25T04:15:12;1.84;75.20
74416;SHT31;62850;42.428;25.618;2024-01-25T04:17:38;1.83;75.16
74416;SHT31;62850;42.428;25.618;2024-01-25T04:20:04;1.81;75.10
74416;SHT31;62850;42.428;25.618;2024-01-25T04:22:29;1.76;75.27
74416;SHT31;62850;42.428;25.618;2024-01-25T04:24:55;1.78;75.30
74416;SHT31;62850;42.428;25.618;2024-01-25T04:27:20;1.71;75.25
74416;SHT31;62850;42.428;25.618;2024-01-25T04:29:46;1.66;75.56
74416;SHT31;62850;42.428;25.618;2024-01-25T04:32:12;1.50;75.89
74416;SHT31;62850;42.428;25.618;2024-01-25T04:34:37;1.47;76.05
74416;SHT31;62850;42.428;25.618;2024-01-25T04:37:03;1.50;75.85
74416;SHT31;62850;42.428;25.618;2024-01-25T04:39:29;1.43;76.02
74416;SHT31;62850;42.428;25.618;2024-01-25T04:41:54;1.31;76.14
74416;SHT31;62850;42.428;25.618;2024-01-25T04:44:20;1.29;76.32
74416;SHT31;62850;42.428;25.618;2024-01-25T04:46:45;1.33;76.37
74416;SHT31;62850;42.428;25.618;2024-01-25T04:49:11;1.11;76.82
74416;SHT31;62850;42.428;25.618;2024-01-25T04:51:36;1.21;76.96
74416;SHT31;62850;42.428;25.618;2024-01-25T04:54:02;1.31;76.96
74416;SHT31;62850;42.428;25.618;2024-01-25T04:56:28;1.29;76.93
74416;SHT31;62850;42.428;25.618;2024-01-25T04:58:53;1.38;76.77
74416;SHT31;62850;42.428;25.618;2024-01-25T05:01:19;1.42;76.58
74416;SHT31;62850;42.428;25.618;2024-01-25T05:03:44;1.36;76.55
74416;SHT31;62850;42.428;25.618;2024-01-25T05:06:10;1.26;76.52
74416;SHT31;62850;42.428;25.618;2024-01-25T05:08:35;1.18;76.87
74416;SHT31;62850;42.428;25.618;2024-01-25T05:11:01;1.16;77.33
74416;SHT31;62850;42.428;25.618;2024-01-25T05:13:26;1.09;77.67
74416;SHT31;62850;42.428;25.618;2024-01-25T05:15:51;1.24;77.37
74416;SHT31;62850;42.428;25.618;2024-01-25T05:18:17;1.28;77.11
74416;SHT31;62850;42.428;25.618;2024-01-25T05:20:42;1.36;77.06
74416;SHT31;62850;42.428;25.618;2024-01-25T05:23:08;1.40;76.77
74416;SHT31;62850;42.428;25.618;2024-01-25T05:25:34;1.50;76.85
74416;SHT31;62850;42.428;25.618;2024-01-25T05:27:59;1.54;76.68
74416;SHT31;62850;42.428;25.618;2024-01-25T05:30:25;1.63;76.34
74416;SHT31;62850;42.428;25.618;2024-01-25T05:32:50;1.66;76.19
74416;SHT31;62850;42.428;25.618;2024-01-25T05:35:18;1.66;76.44
74416;SHT31;62850;42.428;25.618;2024-01-25T05:37:44;1.52;76.38
74416;SHT31;62850;42.428;25.618;2024-01-25T05:40:10;1.54;76.42
74416;SHT31;62850;42.428;25.618;2024-01-25T05:42:35;1.43;76.52
74416;SHT31;62850;42.428;25.618;2024-01-25T05:45:04;1.40;76.73
74416;SHT31;62850;42.428;25.618;2024-01-25T05:47:30;1.46;76.64
74416;SHT31;62850;42.428;25.618;2024-01-25T05:49:56;1.62;76.51
74416;SHT31;62850;42.428;25.618;2024-01-25T05:52:22;1.80;76.19
74416;SHT31;62850;42.428;25.618;2024-01-25T05:54:49;1.88;75.70
74416;SHT31;62850;42.428;25.618;2024-01-25T05:57:15;2.00;75.37
74416;SHT31;62850;42.428;25.618;2024-01-25T05:59:40;2.00;75.32
74416;SHT31;62850;42.428;25.618;2024-01-25T06:02:06;2.05;75.48
74416;SHT31;62850;42.428;25.618;2024-01-25T06:04:31;2.18;75.45
74416;SHT31;62850;42.428;25.618;2024-01-25T06:06:57;2.26;74.94
74416;SHT31;62850;42.428;25.618;2024-01-25T06:09:23;2.36;74.95
74416;SHT31;62850;42.428;25.618;2024-01-25T06:11:50;2.45;74.66
74416;SHT31;62850;42.428;25.618;2024-01-25T06:14:15;2.49;74.58
74416;SHT31;62850;42.428;25.618;2024-01-25T06:16:41;2.48;74.54
74416;SHT31;62850;42.428;25.618;2024-01-25T06:19:06;2.56;74.07
74416;SHT31;62850;42.428;25.618;2024-01-25T06:21:33;2.57;73.93
74416;SHT31;62850;42.428;25.618;2024-01-25T06:24:04;2.65;74.16
74416;SHT31;62850;42.428;25.618;2024-01-25T06:26:30;2.71;73.36
74416;SHT31;62850;42.428;25.618;2024-01-25T06:28:55;2.75;73.17
74416;SHT31;62850;42.428;25.618;2024-01-25T06:31:22;2.67;72.90
74416;SHT31;62850;42.428;25.618;2024-01-25T06:33:47;2.71;72.67
74416;SHT31;62850;42.428;25.618;2024-01-25T06:36:16;2.67;72.76
74416;SHT31;62850;42.428;25.618;2024-01-25T06:38:41;2.79;72.72
74416;SHT31;62850;42.428;25.618;2024-01-25T06:41:09;2.86;72.76
74416;SHT31;62850;42.428;25.618;2024-01-25T06:43:34;2.90;72.34
74416;SHT31;62850;42.428;25.618;2024-01-25T06:46:00;3.05;72.02
74416;SHT31;62850;42.428;25.618;2024-01-25T06:48:25;3.23;72.05
74416;SHT31;62850;42.428;25.618;2024-01-25T06:50:51;3.44;71.83
74416;SHT31;62850;42.428;25.618;2024-01-25T06:53:16;3.65;71.25
74416;SHT31;62850;42.428;25.618;2024-01-25T06:55:42;3.82;71.09
74416;SHT31;62850;42.428;25.618;2024-01-25T06:58:08;4.00;71.05
74416;SHT31;62850;42.428;25.618;2024-01-25T07:00:33;4.04;70.23
74416;SHT31;62850;42.428;25.618;2024-01-25T07:02:59;4.00;69.69
74416;SHT31;62850;42.428;25.618;2024-01-25T07:05:25;3.97;70.35
74416;SHT31;62850;42.428;25.618;2024-01-25T07:07:51;3.99;69.98
74416;SHT31;62850;42.428;25.618;2024-01-25T07:10:17;4.06;69.97
74416;SHT31;62850;42.428;25.618;2024-01-25T07:12:42;4.06;70.38
74416;SHT31;62850;42.428;25.618;2024-01-25T07:15:08;4.06;69.67
74416;SHT31;62850;42.428;25.618;2024-01-25T07:17:33;3.87;69.15
74416;SHT31;62850;42.428;25.618;2024-01-25T07:19:58;3.75;69.26
74416;SHT31;62850;42.428;25.618;2024-01-25T07:22:24;3.52;69.45
74416;SHT31;62850;42.428;25.618;2024-01-25T07:24:49;3.39;70.30
74416;SHT31;62850;42.428;25.618;2024-01-25T07:27:15;3.27;70.71
74416;SHT31;62850;42.428;25.618;2024-01-25T07:29:43;3.28;71.11
74416;SHT31;62850;42.428;25.618;2024-01-25T07:32:09;3.28;71.18
74416;SHT31;62850;42.428;25.618;2024-01-25T07:34:35;3.31;71.50
74416;SHT31;62850;42.428;25.618;2024-01-25T07:37:00;3.36;71.96
74416;SHT31;62850;42.428;25.618;2024-01-25T07:39:26;3.45;72.39
74416;SHT31;62850;42.428;25.618;2024-01-25T07:41:51;3.50;72.28
74416;SHT31;62850;42.428;25.618;2024-01-25T07:44:16;3.58;72.31
74416;SHT31;62850;42.428;25.618;2024-01-25T07:46:43;3.75;71.76
74416;SHT31;62850;42.428;25.618;2024-01-25T07:49:08;3.86;71.59
74416;SHT31;62850;42.428;25.618;2024-01-25T07:51:34;4.14;71.34
74416;SHT31;62850;42.428;25.618;2024-01-25T07:53:59;4.85;69.32
74416;SHT31;62850;42.428;25.618;2024-01-25T07:56:25;6.26;64.00
74416;SHT31;62850;42.428;25.618;2024-01-25T07:58:50;7.35;60.63
74416;SHT31;62850;42.428;25.618;2024-01-25T08:01:19;8.11;57.81
74416;SHT31;62850;42.428;25.618;2024-01-25T08:03:46;8.77;55.03
74416;SHT31;62850;42.428;25.618;2024-01-25T08:06:11;8.86;55.33
74416;SHT31;62850;42.428;25.618;2024-01-25T08:08:37;8.63;56.65
74416;SHT31;62850;42.428;25.618;2024-01-25T08:11:03;8.51;57.29
74416;SHT31;62850;42.428;25.618;2024-01-25T08:13:31;8.25;57.98
74416;SHT31;62850;42.428;25.618;2024-01-25T08:15:57;8.08;57.76
74416;SHT31;62850;42.428;25.618;2024-01-25T08:18:23;7.89;58.23
74416;SHT31;62850;42.428;25.618;2024-01-25T08:20:49;7.53;59.07
74416;SHT31;62850;42.428;25.618;2024-01-25T08:23:16;7.38;59.76
74416;SHT31;62850;42.428;25.618;2024-01-25T08:25:41;7.29;59.76
74416;SHT31;62850;42.428;25.618;2024-01-25T08:28:07;7.16;60.39
74416;SHT31;62850;42.428;25.618;2024-01-25T08:30:33;7.11;60.90
74416;SHT31;62850;42.428;25.618;2024-01-25T08:32:58;7.25;59.83
74416;SHT31;62850;42.428;25.618;2024-01-25T08:35:24;7.48;59.59
74416;SHT31;62850;42.428;25.618;2024-01-25T08:37:50;7.62;59.63
74416;SHT31;62850;42.428;25.618;2024-01-25T08:40:15;7.74;59.60
74416;SHT31;62850;42.428;25.618;2024-01-25T08:42:41;7.87;59.60
74416;SHT31;62850;42.428;25.618;2024-01-25T08:45:07;7.87;59.45
74416;SHT31;62850;42.428;25.618;2024-01-25T08:47:37;7.87;60.18
74416;SHT31;62850;42.428;25.618;2024-01-25T08:50:03;7.84;61.01
74416;SHT31;62850;42.428;25.618;2024-01-25T08:52:30;7.76;61.89
74416;SHT31;62850;42.428;25.618;2024-01-25T08:54:56;7.74;63.20
74416;SHT31;62850;42.428;25.618;2024-01-25T08:57:21;7.73;62.30
74416;SHT31;62850;42.428;25.618;2024-01-25T08:59:47;7.70;62.58
74416;SHT31;62850;42.428;25.618;2024-01-25T09:02:12;7.76;62.85
74416;SHT31;62850;42.428;25.618;2024-01-25T09:04:38;7.80;62.73
74416;SHT31;62850;42.428;25.618;2024-01-25T09:07:05;7.87;62.60
74416;SHT31;62850;42.428;25.618;2024-01-25T09:09:31;7.98;62.45
74416;SHT31;62850;42.428;25.618;2024-01-25T09:11:56;8.05;62.56
74416;SHT31;62850;42.428;25.618;2024-01-25T09:14:21;8.11;62.67
74416;SHT31;62850;42.428;25.618;2024-01-25T09:16:48;8.12;63.05
74416;SHT31;62850;42.428;25.618;2024-01-25T09:19:13;8.12;63.22
74416;SHT31;62850;42.428;25.618;2024-01-25T09:21:39;8.20;62.06
74416;SHT31;62850;42.428;25.618;2024-01-25T09:24:07;8.35;61.86
74416;SHT31;62850;42.428;25.618;2024-01-25T09:26:33;8.42;60.19
74416;SHT31;62850;42.428;25.618;2024-01-25T09:28:58;8.59;58.95
74416;SHT31;62850;42.428;25.618;2024-01-25T09:31:24;8.80;57.41
74416;SHT31;62850;42.428;25.618;2024-01-25T09:33:49;9.06;56.33
74416;SHT31;62850;42.428;25.618;2024-01-25T09:36:16;9.35;54.00
74416;SHT31;62850;42.428;25.618;2024-01-25T09:38:42;9.59;54.01
74416;SHT31;62850;42.428;25.618;2024-01-25T09:41:08;9.72;52.66
74416;SHT31;62850;42.428;25.618;2024-01-25T09:43:33;9.93;51.65
74416;SHT31;62850;42.428;25.618;2024-01-25T09:46:00;10.13;49.81
74416;SHT31;62850;42.428;25.618;2024-01-25T09:48:25;10.23;49.13
74416;SHT31;62850;42.428;25.618;2024-01-25T09:50:54;10.34;50.27
74416;SHT31;62850;42.428;25.618;2024-01-25T09:53:23;10.40;45.23
74416;SHT31;62850;42.428;25.618;2024-01-25T09:56:05;10.84;42.46
74416;SHT31;62850;42.428;25.618;2024-01-25T09:58:43;11.30;40.33
74416;SHT31;62850;42.428;25.618;2024-01-25T10:01:12;11.55;40.23
74416;SHT31;62850;42.428;25.618;2024-01-25T10:03:38;11.70;40.67
74416;SHT31;62850;42.428;25.618;2024-01-25T10:06:07;11.77;40.68
74416;SHT31;62850;42.428;25.618;2024-01-25T10:08:34;11.73;40.51
74416;SHT31;62850;42.428;25.618;2024-01-25T10:10:59;11.78;40.68
74416;SHT31;62850;42.428;25.618;2024-01-25T10:13:26;11.88;40.40
74416;SHT31;62850;42.428;25.618;2024-01-25T10:15:52;12.01;39.73
74416;SHT31;62850;42.428;25.618;2024-01-25T10:18:18;12.07;39.72
74416;SHT31;62850;42.428;25.618;2024-01-25T10:20:43;12.08;38.95
74416;SHT31;62850;42.428;25.618;2024-01-25T10:23:09;12.11;39.13
74416;SHT31;62850;42.428;25.618;2024-01-25T10:25:35;12.21;38.90
74416;SHT31;62850;42.428;25.618;2024-01-25T10:28:02;12.28;37.38
74416;SHT31;62850;42.428;25.618;2024-01-25T10:30:31;12.32;38.02
74416;SHT31;62850;42.428;25.618;2024-01-25T10:32:58;12.17;37.74
74416;SHT31;62850;42.428;25.618;2024-01-25T10:35:25;12.25;37.76
74416;SHT31;62850;42.428;25.618;2024-01-25T10:37:51;12.17;38.50
74416;SHT31;62850;42.428;25.618;2024-01-25T10:40:19;12.28;38.27
74416;SHT31;62850;42.428;25.618;2024-01-25T10:42:45;12.34;36.91
74416;SHT31;62850;42.428;25.618;2024-01-25T10:45:10;12.55;36.01
74416;SHT31;62850;42.428;25.618;2024-01-25T10:47:36;12.49;35.94
74416;SHT31;62850;42.428;25.618;2024-01-25T10:50:03;12.53;35.38
74416;SHT31;62850;42.428;25.618;2024-01-25T10:52:30;12.59;35.30
74416;SHT31;62850;42.428;25.618;2024-01-25T10:54:57;12.67;35.27
74416;SHT31;62850;42.428;25.618;2024-01-25T10:57:23;12.65;34.89
74416;SHT31;62850;42.428;25.618;2024-01-25T10:59:49;12.52;34.76
74416;SHT31;62850;42.428;25.618;2024-01-25T11:02:14;12.62;33.80
74416;SHT31;62850;42.428;25.618;2024-01-25T11:04:52;12.69;34.26
74416;SHT31;62850;42.428;25.618;2024-01-25T11:07:18;12.65;34.27
74416;SHT31;62850;42.428;25.618;2024-01-25T11:09:45;12.59;34.75
74416;SHT31;62850;42.428;25.618;2024-01-25T11:12:13;12.55;34.89
74416;SHT31;62850;42.428;25.618;2024-01-25T11:14:42;12.75;34.26
74416;SHT31;62850;42.428;25.618;2024-01-25T11:17:20;13.02;33.60
74416;SHT31;62850;42.428;25.618;2024-01-25T11:19:46;13.03;33.48
74416;SHT31;62850;42.428;25.618;2024-01-25T11:22:13;13.04;33.93
74416;SHT31;62850;42.428;25.618;2024-01-25T11:24:39;12.90;32.85
74416;SHT31;62850;42.428;25.618;2024-01-25T11:27:05;12.90;33.32
74416;SHT31;62850;42.428;25.618;2024-01-25T11:29:33;12.99;33.90
74416;SHT31;62850;42.428;25.618;2024-01-25T11:31:58;12.97;33.85
74416;SHT31;62850;42.428;25.618;2024-01-25T11:34:24;12.82;33.65
74416;SHT31;62850;42.428;25.618;2024-01-25T11:36:50;12.69;34.04
74416;SHT31;62850;42.428;25.618;2024-01-25T11:39:16;12.66;34.36
74416;SHT31;62850;42.428;25.618;2024-01-25T11:41:42;12.53;34.68
74416;SHT31;62850;42.428;25.618;2024-01-25T11:44:14;12.62;34.25
74416;SHT31;62850;42.428;25.618;2024-01-25T11:46:40;12.65;34.74
74416;SHT31;62850;42.428;25.618;2024-01-25T11:49:06;12.66;34.97
74416;SHT31;62850;42.428;25.618;2024-01-25T11:51:35;12.73;34.68
74416;SHT31;62850;42.428;25.618;2024-01-25T11:54:00;12.69;34.39
74416;SHT31;62850;42.428;25.618;2024-01-25T11:56:28;12.65;34.52
74416;SHT31;62850;42.428;25.618;2024-01-25T11:58:58;12.62;34.03
74416;SHT31;62850;42.428;25.618;2024-01-25T12:01:27;12.62;34.04
74416;SHT31;62850;42.428;25.618;2024-01-25T12:03:53;12.70;33.00
74416;SHT31;62850;42.428;25.618;2024-01-25T12:06:19;12.66;33.28
74416;SHT31;62850;42.428;25.618;2024-01-25T12:08:45;12.57;33.83
74416;SHT31;62850;42.428;25.618;2024-01-25T12:11:13;12.45;34.35
74416;SHT31;62850;42.428;25.618;2024-01-25T12:13:41;12.45;34.22
74416;SHT31;62850;42.428;25.618;2024-01-25T12:16:07;12.42;33.98
74416;SHT31;62850;42.428;25.618;2024-01-25T12:18:34;12.41;33.83
74416;SHT31;62850;42.428;25.618;2024-01-25T12:21:03;12.39;34.24
74416;SHT31;62850;42.428;25.618;2024-01-25T12:23:39;12.31;34.35
74416;SHT31;62850;42.428;25.618;2024-01-25T12:26:10;12.20;35.02
74416;SHT31;62850;42.428;25.618;2024-01-25T12:28:37;12.17;34.63
74416;SHT31;62850;42.428;25.618;2024-01-25T12:31:04;12.14;33.97
74416;SHT31;62850;42.428;25.618;2024-01-25T12:33:30;12.10;34.32
74416;SHT31;62850;42.428;25.618;2024-01-25T12:35:56;12.05;34.75
74416;SHT31;62850;42.428;25.618;2024-01-25T12:38:22;11.94;35.04
74416;SHT31;62850;42.428;25.618;2024-01-25T12:40:48;11.95;35.67
74416;SHT31;62850;42.428;25.618;2024-01-25T12:43:15;11.87;35.83
74416;SHT31;62850;42.428;25.618;2024-01-25T12:45:41;11.84;36.07
74416;SHT31;62850;42.428;25.618;2024-01-25T12:48:07;11.74;36.64
74416;SHT31;62850;42.428;25.618;2024-01-25T12:50:33;11.67;36.79
74416;SHT31;62850;42.428;25.618;2024-01-25T12:53:00;11.69;36.83
74416;SHT31;62850;42.428;25.618;2024-01-25T12:55:27;11.70;36.70
74416;SHT31;62850;42.428;25.618;2024-01-25T12:57:52;11.70;36.50
74416;SHT31;62850;42.428;25.618;2024-01-25T13:00:18;11.71;36.16
74416;SHT31;62850;42.428;25.618;2024-01-25T13:02:43;11.74;36.18
74416;SHT31;62850;42.428;25.618;2024-01-25T13:05:09;11.77;35.64
74416;SHT31;62850;42.428;25.618;2024-01-25T13:07:34;11.77;36.08
74416;SHT31;62850;42.428;25.618;2024-01-25T13:10:00;11.76;35.52
74416;SHT31;62850;42.428;25.618;2024-01-25T13:12:25;11.73;35.74
74416;SHT31;62850;42.428;25.618;2024-01-25T13:14:51;11.70;36.03
74416;SHT31;62850;42.428;25.618;2024-01-25T13:17:16;11.64;36.10
74416;SHT31;62850;42.428;25.618;2024-01-25T13:19:41;11.56;36.66
74416;SHT31;62850;42.428;25.618;2024-01-25T13:22:07;11.52;37.03
74416;SHT31;62850;42.428;25.618;2024-01-25T13:24:32;11.39;37.49
74416;SHT31;62850;42.428;25.618;2024-01-25T13:26:58;11.35;37.76
74416;SHT31;62850;42.428;25.618;2024-01-25T13:29:23;11.36;37.87
74416;SHT31;62850;42.428;25.618;2024-01-25T13:31:49;11.32;37.61
74416;SHT31;62850;42.428;25.618;2024-01-25T13:34:14;11.32;37.68
74416;SHT31;62850;42.428;25.618;2024-01-25T13:36:39;11.27;38.10
74416;SHT31;62850;42.428;25.618;2024-01-25T13:39:05;11.18;38.62
74416;SHT31;62850;42.428;25.618;2024-01-25T13:41:30;11.14;38.89
74416;SHT31;62850;42.428;25.618;2024-01-25T13:43:56;11.12;38.82
74416;SHT31;62850;42.428;25.618;2024-01-25T13:46:21;11.11;39.05
74416;SHT31;62850;42.428;25.618;2024-01-25T13:48:47;11.11;39.31
74416;SHT31;62850;42.428;25.618;2024-01-25T13:51:12;11.11;39.26
74416;SHT31;62850;42.428;25.618;2024-01-25T13:53:38;11.12;39.41
74416;SHT31;62850;42.428;25.618;2024-01-25T13:56:03;11.16;39.38
74416;SHT31;62850;42.428;25.618;2024-01-25T13:58:29;11.05;39.89
74416;SHT31;62850;42.428;25.618;2024-01-25T14:00:54;11.04;40.00
74416;SHT31;62850;42.428;25.618;2024-01-25T14:03:20;11.16;39.50
74416;SHT31;62850;42.428;25.618;2024-01-25T14:05:45;11.12;39.19
74416;SHT31;62850;42.428;25.618;2024-01-25T14:08:11;11.12;38.93
74416;SHT31;62850;42.428;25.618;2024-01-25T14:10:36;11.15;38.91
74416;SHT31;62850;42.428;25.618;2024-01-25T14:13:02;11.19;38.74
74416;SHT31;62850;42.428;25.618;2024-01-25T14:15:28;11.29;38.51
74416;SHT31;62850;42.428;25.618;2024-01-25T14:17:53;11.25;38.72
74416;SHT31;62850;42.428;25.618;2024-01-25T14:20:18;11.32;38.29
74416;SHT31;62850;42.428;25.618;2024-01-25T14:22:44;11.32;38.41
74416;SHT31;62850;42.428;25.618;2024-01-25T14:25:10;11.32;38.42
74416;SHT31;62850;42.428;25.618;2024-01-25T14:27:35;11.29;38.55
74416;SHT31;62850;42.428;25.618;2024-01-25T14:30:01;11.32;38.60
74416;SHT31;62850;42.428;25.618;2024-01-25T14:32:29;11.44;38.47
74416;SHT31;62850;42.428;25.618;2024-01-25T14:34:54;11.47;38.39
74416;SHT31;62850;42.428;25.618;2024-01-25T14:37:20;11.44;38.18
74416;SHT31;62850;42.428;25.618;2024-01-25T14:39:45;11.47;38.50
74416;SHT31;62850;42.428;25.618;2024-01-25T14:42:11;11.44;38.70
74416;SHT31;62850;42.428;25.618;2024-01-25T14:44:37;11.44;38.72
74416;SHT31;62850;42.428;25.618;2024-01-25T14:47:03;11.39;39.00
74416;SHT31;62850;42.428;25.618;2024-01-25T14:49:28;11.49;38.89
74416;SHT31;62850;42.428;25.618;2024-01-25T14:51:54;11.50;39.28
74416;SHT31;62850;42.428;25.618;2024-01-25T14:54:19;11.42;38.79
74416;SHT31;62850;42.428;25.618;2024-01-25T14:56:44;11.30;39.08
74416;SHT31;62850;42.428;25.618;2024-01-25T14:59:10;11.30;39.24
74416;SHT31;62850;42.428;25.618;2024-01-25T15:01:35;11.23;38.94
74416;SHT31;62850;42.428;25.618;2024-01-25T15:04:01;11.26;38.99
74416;SHT31;62850;42.428;25.618;2024-01-25T15:06:26;11.22;39.40
74416;SHT31;62850;42.428;25.618;2024-01-25T15:08:52;11.11;38.61
74416;SHT31;62850;42.428;25.618;2024-01-25T15:11:18;10.92;39.15
74416;SHT31;62850;42.428;25.618;2024-01-25T15:13:43;10.92;39.38
74416;SHT31;62850;42.428;25.618;2024-01-25T15:16:09;10.95;39.46
74416;SHT31;62850;42.428;25.618;2024-01-25T15:18:34;10.99;39.63